sensor_id;sensor_type;location;lat;lon;timestamp;pressure;altitude;pressure_sealevel;temperature;humidity
49397;BME280;35615;41.410;2.194;2022-10-29T00:00:28;102401.19;;;22.31;56.94
49397;BME280;35615;41.410;2.194;2022-10-29T00:03:04;102389.78;;;22.32;56.84
49397;BME280;35615;41.410;2.194;2022-10-29T00:06:05;102392.47;;;22.35;56.02
49397;BME280;35615;41.410;2.194;2022-10-29T00:08:54;102387.84;;;22.20;56.27
49397;BME280;35615;41.410;2.194;2022-10-29T00:11:36;102386.97;;;22.21;55.82
49397;BME280;35615;41.410;2.194;2022-10-29T00:14:21;102386.16;;;22.25;55.75
49397;BME280;35615;41.410;2.194;2022-10-29T00:17:03;102389.69;;;22.27;55.31
49397;BME280;35615;41.410;2.194;2022-10-29T00:19:51;102381.00;;;22.30;55.34
49397;BME280;35615;41.410;2.194;2022-10-29T00:22:33;102382.63;;;22.25;54.65
49397;BME280;35615;41.410;2.194;2022-10-29T00:25:11;102382.47;;;22.14;53.94
49397;BME280;35615;41.410;2.194;2022-10-29T00:27:54;102376.28;;;22.11;53.91
49397;BME280;35615;41.410;2.194;2022-10-29T00:30:42;102376.34;;;22.17;53.09
49397;BME280;35615;41.410;2.194;2022-10-29T00:33:29;102374.59;;;22.16;53.07
49397;BME280;35615;41.410;2.194;2022-10-29T00:36:08;102367.25;;;21.98;52.62
49397;BME280;35615;41.410;2.194;2022-10-29T00:39:15;102370.81;;;22.01;52.27
49397;BME280;35615;41.410;2.194;2022-10-29T00:42:11;102368.31;;;22.06;52.66
49397;BME280;35615;41.410;2.194;2022-10-29T00:44:47;102369.94;;;22.01;51.79
49397;BME280;35615;41.410;2.194;2022-10-29T00:47:50;102369.00;;;21.97;51.88
49397;BME280;35615;41.410;2.194;2022-10-29T00:50:44;102367.25;;;21.96;52.06
49397;BME280;35615;41.410;2.194;2022-10-29T00:53:32;102366.38;;;21.97;51.61
49397;BME280;35615;41.410;2.194;2022-10-29T00:56:37;102372.53;;;21.98;51.12
49397;BME280;35615;41.410;2.194;2022-10-29T00:59:21;102377.69;;;21.93;50.77
49397;BME280;35615;41.410;2.194;2022-10-29T01:02:06;102358.41;;;21.94;50.86
49397;BME280;35615;41.410;2.194;2022-10-29T01:04:40;102359.38;;;21.98;50.28
49397;BME280;35615;41.410;2.194;2022-10-29T01:07:28;102361.97;;;21.96;50.67
49397;BME280;35615;41.410;2.194;2022-10-29T01:10:22;102365.50;;;21.98;50.63
49397;BME280;35615;41.410;2.194;2022-10-29T01:28:32;102341.47;;;21.77;49.70
49397;BME280;35615;41.410;2.194;2022-10-29T01:35:08;102335.16;;;21.67;49.54
49397;BME280;35615;41.410;2.194;2022-10-29T01:38:07;102324.63;;;21.67;49.94
49397;BME280;35615;41.410;2.194;2022-10-29T01:44:36;102315.84;;;21.65;49.50
49397;BME280;35615;41.410;2.194;2022-10-29T01:50:20;102316.78;;;21.70;49.69
49397;BME280;35615;41.410;2.194;2022-10-29T01:52:56;102316.72;;;21.66;49.57
49397;BME280;35615;41.410;2.194;2022-10-29T01:55:35;102319.22;;;21.60;49.04
49397;BME280;35615;41.410;2.194;2022-10-29T01:58:12;102317.47;;;21.60;49.11
49397;BME280;35615;41.410;2.194;2022-10-29T02:10:31;102307.75;;;21.55;48.69
49397;BME280;35615;41.410;2.194;2022-10-29T02:13:02;102306.34;;;21.27;49.00
49397;BME280;35615;41.410;2.194;2022-10-29T02:15:47;102298.75;;;21.42;48.92
49397;BME280;35615;41.410;2.194;2022-10-29T02:18:25;102296.16;;;21.43;48.50
49397;BME280;35615;41.410;2.194;2022-10-29T02:21:07;102297.91;;;21.44;49.02
49397;BME280;35615;41.410;2.194;2022-10-29T02:23:52;102296.16;;;21.43;48.79
49397;BME280;35615;41.410;2.194;2022-10-29T02:26:24;102299.69;;;21.45;48.79
49397;BME280;35615;41.410;2.194;2022-10-29T02:28:58;102288.16;;;21.39;49.14
49397;BME280;35615;41.410;2.194;2022-10-29T02:31:25;102290.00;;;21.43;49.16
49397;BME280;35615;41.410;2.194;2022-10-29T02:33:59;102290.00;;;21.41;48.81
49397;BME280;35615;41.410;2.194;2022-10-29T02:36:38;102285.50;;;21.37;48.16
49397;BME280;35615;41.410;2.194;2022-10-29T02:39:19;102280.38;;;21.43;48.37
49397;BME280;35615;41.410;2.194;2022-10-29T02:41:51;102282.88;;;21.37;48.58
49397;BME280;35615;41.410;2.194;2022-10-29T02:44:23;102284.50;;;21.29;48.41
49397;BME280;35615;41.410;2.194;2022-10-29T02:47:02;102283.50;;;21.24;48.40
49397;BME280;35615;41.410;2.194;2022-10-29T02:49:32;102286.25;;;21.29;48.74
49397;BME280;35615;41.410;2.194;2022-10-29T02:52:27;102278.22;;;21.24;48.44
49397;BME280;35615;41.410;2.194;2022-10-29T02:54:58;102277.19;;;21.16;48.95
49397;BME280;35615;41.410;2.194;2022-10-29T02:57:35;102275.59;;;21.24;48.55
49397;BME280;35615;41.410;2.194;2022-10-29T03:00:12;102277.44;;;21.27;48.58
49397;BME280;35615;41.410;2.194;2022-10-29T03:02:45;102277.56;;;21.33;48.42
49397;BME280;35615;41.410;2.194;2022-10-29T03:05:24;102276.56;;;21.28;47.87
49397;BME280;35615;41.410;2.194;2022-10-29T03:08:02;102278.31;;;21.27;47.77
49397;BME280;35615;41.410;2.194;2022-10-29T03:10:41;102272.97;;;21.24;47.92
49397;BME280;35615;41.410;2.194;2022-10-29T03:13:25;102278.03;;;21.13;47.41
49397;BME280;35615;41.410;2.194;2022-10-29T03:16:15;102278.22;;;21.24;47.38
49397;BME280;35615;41.410;2.194;2022-10-29T03:19:00;102283.66;;;21.30;47.75
49397;BME280;35615;41.410;2.194;2022-10-29T03:21:35;102274.41;;;21.07;47.52
49397;BME280;35615;41.410;2.194;2022-10-29T03:24:19;102279.56;;;21.02;47.82
49397;BME280;35615;41.410;2.194;2022-10-29T03:26:56;102276.34;;;21.17;47.74
49397;BME280;35615;41.410;2.194;2022-10-29T03:29:38;102273.63;;;21.12;47.40
49397;BME280;35615;41.410;2.194;2022-10-29T03:32:31;102287.59;;;21.08;46.90
49397;BME280;35615;41.410;2.194;2022-10-29T03:35:04;102279.72;;;21.10;47.60
49397;BME280;35615;41.410;2.194;2022-10-29T03:37:41;102278.00;;;21.12;47.29
49397;BME280;35615;41.410;2.194;2022-10-29T03:40:21;102280.56;;;21.07;47.45
49397;BME280;35615;41.410;2.194;2022-10-29T03:42:52;102284.16;;;21.14;48.06
49397;BME280;35615;41.410;2.194;2022-10-29T03:45:37;102275.38;;;21.12;47.56
49397;BME280;35615;41.410;2.194;2022-10-29T03:48:14;102281.53;;;21.14;47.82
49397;BME280;35615;41.410;2.194;2022-10-29T03:50:53;102276.25;;;21.12;47.13
49397;BME280;35615;41.410;2.194;2022-10-29T03:53:29;102280.59;;;21.09;47.80
49397;BME280;35615;41.410;2.194;2022-10-29T03:56:04;102279.63;;;21.05;47.12
49397;BME280;35615;41.410;2.194;2022-10-29T03:58:39;102281.47;;;21.09;47.81
49397;BME280;35615;41.410;2.194;2022-10-29T04:01:15;102274.25;;;20.99;47.37
49397;BME280;35615;41.410;2.194;2022-10-29T04:03:56;102270.03;;;21.07;47.85
49397;BME280;35615;41.410;2.194;2022-10-29T04:06:36;102269.22;;;21.11;47.43
49397;BME280;35615;41.410;2.194;2022-10-29T04:09:16;102272.69;;;21.09;47.72
49397;BME280;35615;41.410;2.194;2022-10-29T04:11:59;102275.19;;;21.03;47.28
49397;BME280;35615;41.410;2.194;2022-10-29T04:14:36;102274.41;;;21.07;47.69
49397;BME280;35615;41.410;2.194;2022-10-29T04:17:20;102278.88;;;21.12;48.00
49397;BME280;35615;41.410;2.194;2022-10-29T04:20:00;102267.34;;;21.06;46.98
49397;BME280;35615;41.410;2.194;2022-10-29T04:22:52;102279.56;;;21.02;47.32
49397;BME280;35615;41.410;2.194;2022-10-29T04:26:07;102277.88;;;21.06;46.97
49397;BME280;35615;41.410;2.194;2022-10-29T04:28:57;102281.34;;;21.03;46.93
49397;BME280;35615;41.410;2.194;2022-10-29T04:31:33;102278.63;;;20.99;47.17
49397;BME280;35615;41.410;2.194;2022-10-29T04:34:14;102275.22;;;21.04;46.88
49397;BME280;35615;41.410;2.194;2022-10-29T04:37:00;102279.41;;;20.95;46.70
49397;BME280;35615;41.410;2.194;2022-10-29T04:39:33;102269.91;;;21.01;46.98
49397;BME280;35615;41.410;2.194;2022-10-29T04:42:22;102274.31;;;21.02;46.97
49397;BME280;35615;41.410;2.194;2022-10-29T04:44:59;102270.75;;;20.99;46.67
49397;BME280;35615;41.410;2.194;2022-10-29T04:47:42;102273.41;;;21.00;47.44
49397;BME280;35615;41.410;2.194;2022-10-29T04:50:19;102270.59;;;20.91;47.27
49397;BME280;35615;41.410;2.194;2022-10-29T04:53:10;102274.94;;;20.91;46.63
49397;BME280;35615;41.410;2.194;2022-10-29T04:55:56;102269.69;;;20.89;47.04
49397;BME280;35615;41.410;2.194;2022-10-29T04:58:31;102269.75;;;20.94;47.43
49397;BME280;35615;41.410;2.194;2022-10-29T05:01:10;102270.47;;;20.85;47.25
49397;BME280;35615;41.410;2.194;2022-10-29T05:03:43;102268.81;;;20.90;47.26
49397;BME280;35615;41.410;2.194;2022-10-29T05:06:13;102281.88;;;20.85;47.06
49397;BME280;35615;41.410;2.194;2022-10-29T05:08:48;102276.72;;;20.92;47.26
49397;BME280;35615;41.410;2.194;2022-10-29T05:11:26;102286.28;;;20.88;47.26
49397;BME280;35615;41.410;2.194;2022-10-29T05:14:04;102282.75;;;20.86;47.26
49397;BME280;35615;41.410;2.194;2022-10-29T05:16:56;102276.63;;;20.85;47.61
49397;BME280;35615;41.410;2.194;2022-10-29T05:19:29;102275.53;;;20.76;46.78
49397;BME280;35615;41.410;2.194;2022-10-29T05:22:07;102284.25;;;20.73;47.58
49397;BME280;35615;41.410;2.194;2022-10-29T05:24:51;102285.19;;;20.77;48.03
49397;BME280;35615;41.410;2.194;2022-10-29T05:27:32;102283.31;;;20.71;47.49
49397;BME280;35615;41.410;2.194;2022-10-29T05:30:08;102289.63;;;20.81;47.41
49397;BME280;35615;41.410;2.194;2022-10-29T05:32:48;102286.97;;;20.79;48.39
49397;BME280;35615;41.410;2.194;2022-10-29T05:35:21;102279.81;;;20.72;47.37
49397;BME280;35615;41.410;2.194;2022-10-29T05:38:08;102283.22;;;20.67;47.99
49397;BME280;35615;41.410;2.194;2022-10-29T05:40:52;102287.59;;;20.66;47.91
49397;BME280;35615;41.410;2.194;2022-10-29T05:43:36;102287.63;;;20.68;47.86
49397;BME280;35615;41.410;2.194;2022-10-29T05:46:31;102287.63;;;20.68;48.03
49397;BME280;35615;41.410;2.194;2022-10-29T05:49:13;102288.53;;;20.70;47.85
49397;BME280;35615;41.410;2.194;2022-10-29T05:51:57;102285.06;;;20.72;47.93
49397;BME280;35615;41.410;2.194;2022-10-29T05:54:31;102282.50;;;20.74;48.44
49397;BME280;35615;41.410;2.194;2022-10-29T05:57:06;102287.66;;;20.69;48.19
49397;BME280;35615;41.410;2.194;2022-10-29T05:59:41;102286.78;;;20.70;48.23
49397;BME280;35615;41.410;2.194;2022-10-29T06:02:12;102290.25;;;20.68;48.76
49397;BME280;35615;41.410;2.194;2022-10-29T06:04:42;102283.97;;;20.61;49.14
49397;BME280;35615;41.410;2.194;2022-10-29T06:07:11;102289.94;;;20.52;49.55
49397;BME280;35615;41.410;2.194;2022-10-29T06:09:41;102297.22;;;20.66;49.83
49397;BME280;35615;41.410;2.194;2022-10-29T06:12:20;102292.59;;;20.55;49.15
49397;BME280;35615;41.410;2.194;2022-10-29T06:15:07;102299.53;;;20.52;49.29
49397;BME280;35615;41.410;2.194;2022-10-29T06:17:49;102294.41;;;20.58;49.32
49397;BME280;35615;41.410;2.194;2022-10-29T06:20:28;102287.38;;;20.57;49.23
49397;BME280;35615;41.410;2.194;2022-10-29T06:23:08;102297.19;;;20.64;49.31
49397;BME280;35615;41.410;2.194;2022-10-29T06:25:41;102293.69;;;20.65;49.14
49397;BME280;35615;41.410;2.194;2022-10-29T06:31:05;102298.53;;;20.47;49.76
49397;BME280;35615;41.410;2.194;2022-10-29T06:33:34;102295.19;;;20.52;50.39
49397;BME280;35615;41.410;2.194;2022-10-29T06:36:02;102303.97;;;20.54;50.33
49397;BME280;35615;41.410;2.194;2022-10-29T06:38:46;102294.34;;;20.55;50.28
49397;BME280;35615;41.410;2.194;2022-10-29T06:41:19;102292.47;;;20.49;49.50
49397;BME280;35615;41.410;2.194;2022-10-29T06:43:51;102291.59;;;20.50;49.31
49397;BME280;35615;41.410;2.194;2022-10-29T06:46:21;102294.47;;;20.61;49.54
49397;BME280;35615;41.410;2.194;2022-10-29T06:48:50;102289.72;;;20.43;48.71
49397;BME280;35615;41.410;2.194;2022-10-29T06:51:23;102287.09;;;20.43;48.82
49397;BME280;35615;41.410;2.194;2022-10-29T06:53:51;102290.78;;;20.51;48.56
49397;BME280;35615;41.410;2.194;2022-10-29T06:56:25;102297.88;;;20.55;48.52
49397;BME280;35615;41.410;2.194;2022-10-29T06:59:03;102294.19;;;20.49;48.85
49397;BME280;35615;41.410;2.194;2022-10-29T07:01:36;102292.41;;;20.46;48.80
49397;BME280;35615;41.410;2.194;2022-10-29T07:04:17;102297.94;;;20.60;48.56
49397;BME280;35615;41.410;2.194;2022-10-29T07:07:01;102303.19;;;20.60;48.03
49397;BME280;35615;41.410;2.194;2022-10-29T07:09:43;102304.81;;;20.53;47.83
49397;BME280;35615;41.410;2.194;2022-10-29T07:15:21;102304.16;;;20.62;47.51
49397;BME280;35615;41.410;2.194;2022-10-29T07:18:11;102310.44;;;20.72;48.06
49397;BME280;35615;41.410;2.194;2022-10-29T07:20:51;102304.34;;;20.73;47.27
49397;BME280;35615;41.410;2.194;2022-10-29T07:23:34;102304.47;;;20.77;47.17
49397;BME280;35615;41.410;2.194;2022-10-29T07:26:24;102305.41;;;20.81;47.46
49397;BME280;35615;41.410;2.194;2022-10-29T07:29:13;102310.75;;;20.84;46.96
49397;BME280;35615;41.410;2.194;2022-10-29T07:31:56;102317.22;;;21.03;47.52
49397;BME280;35615;41.410;2.194;2022-10-29T07:34:35;102311.22;;;21.07;46.62
49397;BME280;35615;41.410;2.194;2022-10-29T07:37:25;102304.28;;;21.12;46.71
49397;BME280;35615;41.410;2.194;2022-10-29T07:40:03;102315.03;;;21.24;46.08
49397;BME280;35615;41.410;2.194;2022-10-29T07:42:36;102312.56;;;21.30;46.98
49397;BME280;35615;41.410;2.194;2022-10-29T07:45:12;102315.22;;;21.32;46.52
49397;BME280;35615;41.410;2.194;2022-10-29T07:48:00;102313.47;;;21.32;46.11
49397;BME280;35615;41.410;2.194;2022-10-29T07:50:37;102315.41;;;21.41;45.83
49397;BME280;35615;41.410;2.194;2022-10-29T07:53:16;102329.44;;;21.41;46.32
49397;BME280;35615;41.410;2.194;2022-10-29T07:55:54;102323.88;;;21.28;45.82
49397;BME280;35615;41.410;2.194;2022-10-29T07:58:25;102324.91;;;21.34;45.94
49397;BME280;35615;41.410;2.194;2022-10-29T08:01:00;102329.28;;;21.35;46.33
49397;BME280;35615;41.410;2.194;2022-10-29T08:03:36;102320.56;;;21.38;45.84
49397;BME280;35615;41.410;2.194;2022-10-29T08:06:11;102320.72;;;21.45;45.76
49397;BME280;35615;41.410;2.194;2022-10-29T08:08:49;102321.59;;;21.44;45.27
49397;BME280;35615;41.410;2.194;2022-10-29T08:11:35;102327.03;;;21.55;45.80
49397;BME280;35615;41.410;2.194;2022-10-29T08:14:09;102326.13;;;21.52;44.65
49397;BME280;35615;41.410;2.194;2022-10-29T08:16:59;102327.09;;;21.58;44.88
49397;BME280;35615;41.410;2.194;2022-10-29T08:19:38;102327.94;;;21.57;45.00
49397;BME280;35615;41.410;2.194;2022-10-29T08:22:14;102329.69;;;21.57;44.60
49397;BME280;35615;41.410;2.194;2022-10-29T08:24:55;102319.16;;;21.55;44.89
49397;BME280;35615;41.410;2.194;2022-10-29T08:30:29;102322.84;;;21.65;44.60
49397;BME280;35615;41.410;2.194;2022-10-29T08:33:02;102327.22;;;21.64;44.76
49397;BME280;35615;41.410;2.194;2022-10-29T08:35:50;102323.00;;;21.74;44.39
49397;BME280;35615;41.410;2.194;2022-10-29T08:38:24;102324.00;;;21.82;44.58
49397;BME280;35615;41.410;2.194;2022-10-29T08:47:14;102325.94;;;21.94;43.45
49397;BME280;35615;41.410;2.194;2022-10-29T08:53:04;102318.44;;;22.15;43.10
49397;BME280;35615;41.410;2.194;2022-10-29T08:56:05;102326.56;;;22.29;42.76
49397;BME280;35615;41.410;2.194;2022-10-29T09:01:50;102333.91;;;22.51;43.48
49397;BME280;35615;41.410;2.194;2022-10-29T09:10:26;102330.72;;;22.77;43.74
49397;BME280;35615;41.410;2.194;2022-10-29T09:13:22;102324.94;;;23.02;44.82
49397;BME280;35615;41.410;2.194;2022-10-29T09:22:06;102327.59;;;23.87;46.58
49397;BME280;35615;41.410;2.194;2022-10-29T09:30:28;102325.41;;;24.48;46.63
49397;BME280;35615;41.410;2.194;2022-10-29T09:33:09;102324.56;;;24.55;47.89
49397;BME280;35615;41.410;2.194;2022-10-29T09:35:55;102322.56;;;24.18;49.21
49397;BME280;35615;41.410;2.194;2022-10-29T09:38:36;102318.97;;;24.14;50.14
49397;BME280;35615;41.410;2.194;2022-10-29T09:41:13;102320.78;;;24.18;50.55
49397;BME280;35615;41.410;2.194;2022-10-29T09:43:47;102325.47;;;24.60;49.70
49397;BME280;35615;41.410;2.194;2022-10-29T09:46:38;102323.75;;;24.62;49.64
49397;BME280;35615;41.410;2.194;2022-10-29T09:49:27;102321.00;;;24.49;50.60
49397;BME280;35615;41.410;2.194;2022-10-29T09:52:18;102310.38;;;24.38;50.29
49397;BME280;35615;41.410;2.194;2022-10-29T09:54:53;102313.13;;;24.55;50.52
49397;BME280;35615;41.410;2.194;2022-10-29T09:57:27;102308.78;;;24.69;49.86
49397;BME280;35615;41.410;2.194;2022-10-29T10:00:28;102310.53;;;24.72;50.15
49397;BME280;35615;41.410;2.194;2022-10-29T10:03:17;102307.09;;;24.88;49.90
49397;BME280;35615;41.410;2.194;2022-10-29T10:06:09;102308.09;;;25.05;49.58
49397;BME280;35615;41.410;2.194;2022-10-29T10:24:55;102294.03;;;25.28;50.53
49397;BME280;35615;41.410;2.194;2022-10-29T10:31:13;102290.47;;;25.26;50.03
49397;BME280;35615;41.410;2.194;2022-10-29T10:37:04;102286.97;;;25.34;50.38
49397;BME280;35615;41.410;2.194;2022-10-29T10:40:40;102288.72;;;25.35;49.73
49397;BME280;35615;41.410;2.194;2022-10-29T10:43:43;102289.63;;;25.45;50.17
49397;BME280;35615;41.410;2.194;2022-10-29T10:46:57;102294.94;;;25.60;51.07
49397;BME280;35615;41.410;2.194;2022-10-29T10:49:42;102285.22;;;25.41;51.30
49397;BME280;35615;41.410;2.194;2022-10-29T10:52:36;102281.72;;;25.54;51.83
49397;BME280;35615;41.410;2.194;2022-10-29T10:55:37;102279.94;;;25.47;52.38
49397;BME280;35615;41.410;2.194;2022-10-29T10:58:33;102287.88;;;25.53;53.60
49397;BME280;35615;41.410;2.194;2022-10-29T11:01:54;102281.69;;;25.33;54.75
49397;BME280;35615;41.410;2.194;2022-10-29T11:04:36;102280.81;;;25.35;55.19
49397;BME280;35615;41.410;2.194;2022-10-29T11:07:18;102284.31;;;25.34;55.07
49397;BME280;35615;41.410;2.194;2022-10-29T11:10:02;102289.66;;;25.40;55.17
49397;BME280;35615;41.410;2.194;2022-10-29T11:13:09;102280.78;;;25.37;54.73
49397;BME280;35615;41.410;2.194;2022-10-29T11:16:32;102273.75;;;25.34;54.72
49397;BME280;35615;41.410;2.194;2022-10-29T11:19:47;102274.66;;;25.62;54.33
49397;BME280;35615;41.410;2.194;2022-10-29T11:26:11;102262.34;;;25.76;53.57
49397;BME280;35615;41.410;2.194;2022-10-29T11:28:56;102270.22;;;26.12;53.08
49397;BME280;35615;41.410;2.194;2022-10-29T11:38:41;102257.88;;;25.54;54.36
49397;BME280;35615;41.410;2.194;2022-10-29T11:41:43;102257.03;;;25.70;54.01
49397;BME280;35615;41.410;2.194;2022-10-29T11:44:17;102251.72;;;25.83;54.07
49397;BME280;35615;41.410;2.194;2022-10-29T11:53:06;102240.19;;;26.11;54.38
49397;BME280;35615;41.410;2.194;2022-10-29T12:04:36;102234.91;;;26.02;54.57
49397;BME280;35615;41.410;2.194;2022-10-29T12:10:32;102236.69;;;26.09;55.22
49397;BME280;35615;41.410;2.194;2022-10-29T12:13:44;102232.22;;;26.23;55.22
49397;BME280;35615;41.410;2.194;2022-10-29T12:19:55;102219.88;;;26.22;54.56
49397;BME280;35615;41.410;2.194;2022-10-29T12:23:02;102214.50;;;26.47;54.24
49397;BME280;35615;41.410;2.194;2022-10-29T12:26:07;102203.78;;;26.70;53.58
49397;BME280;35615;41.410;2.194;2022-10-29T12:29:03;102204.69;;;26.66;53.59
49397;BME280;35615;41.410;2.194;2022-10-29T12:32:06;102200.28;;;26.63;53.11
49397;BME280;35615;41.410;2.194;2022-10-29T12:43:51;102193.84;;;27.08;52.21
49397;BME280;35615;41.410;2.194;2022-10-29T12:49:41;102201.38;;;25.93;55.40
49397;BME280;35615;41.410;2.194;2022-10-29T12:55:18;102174.88;;;26.04;55.14
49397;BME280;35615;41.410;2.194;2022-10-29T12:57:56;102169.56;;;26.16;55.07
49397;BME280;35615;41.410;2.194;2022-10-29T13:00:51;102165.16;;;26.17;55.06
49397;BME280;35615;41.410;2.194;2022-10-29T13:13:34;102154.56;;;26.17;55.23
49397;BME280;35615;41.410;2.194;2022-10-29T13:16:23;102156.25;;;26.30;54.55
49397;BME280;35615;41.410;2.194;2022-10-29T13:25:41;102139.94;;;26.99;53.21
49397;BME280;35615;41.410;2.194;2022-10-29T13:33:57;102121.06;;;27.37;52.04
49397;BME280;35615;41.410;2.194;2022-10-29T13:36:34;102120.78;;;27.67;51.84
49397;BME280;35615;41.410;2.194;2022-10-29T13:39:31;102123.38;;;27.73;50.73
49397;BME280;35615;41.410;2.194;2022-10-29T13:42:18;102117.63;;;28.10;49.62
49397;BME280;35615;41.410;2.194;2022-10-29T13:45:02;102122.97;;;28.07;49.31
49397;BME280;35615;41.410;2.194;2022-10-29T13:47:48;102113.31;;;28.00;49.81
49397;BME280;35615;41.410;2.194;2022-10-29T13:50:51;102112.97;;;28.29;49.01
49397;BME280;35615;41.410;2.194;2022-10-29T13:53:51;102117.69;;;28.72;47.85
49397;BME280;35615;41.410;2.194;2022-10-29T13:57:07;102112.28;;;28.76;46.78
49397;BME280;35615;41.410;2.194;2022-10-29T14:06:19;102100.81;;;29.27;45.98
49397;BME280;35615;41.410;2.194;2022-10-29T14:10:05;102103.13;;;29.45;45.65
49397;BME280;35615;41.410;2.194;2022-10-29T14:12:40;102100.38;;;29.51;46.00
49397;BME280;35615;41.410;2.194;2022-10-29T14:15:16;102095.66;;;29.17;46.31
49397;BME280;35615;41.410;2.194;2022-10-29T14:18:24;102092.84;;;29.27;46.48
49397;BME280;35615;41.410;2.194;2022-10-29T14:21:05;102091.56;;;29.49;46.25
49397;BME280;35615;41.410;2.194;2022-10-29T14:24:02;102085.97;;;29.12;46.86
49397;BME280;35615;41.410;2.194;2022-10-29T14:27:10;102086.22;;;28.98;46.85
49397;BME280;35615;41.410;2.194;2022-10-29T14:30:09;102089.28;;;28.72;47.13
49397;BME280;35615;41.410;2.194;2022-10-29T14:33:01;102084.19;;;28.57;47.96
49397;BME280;35615;41.410;2.194;2022-10-29T14:35:55;102071.91;;;28.50;48.06
49397;BME280;35615;41.410;2.194;2022-10-29T14:41:21;102076.69;;;28.28;48.53
49397;BME280;35615;41.410;2.194;2022-10-29T14:44:20;102075.34;;;27.92;49.46
49397;BME280;35615;41.410;2.194;2022-10-29T14:50:23;102072.25;;;27.53;50.25
49397;BME280;35615;41.410;2.194;2022-10-29T14:53:22;102070.63;;;27.37;50.59
49397;BME280;35615;41.410;2.194;2022-10-29T14:55:59;102069.88;;;27.24;51.00
49397;BME280;35615;41.410;2.194;2022-10-29T14:58:55;102069.84;;;27.30;50.98
49397;BME280;35615;41.410;2.194;2022-10-29T15:01:31;102074.50;;;27.02;51.92
49397;BME280;35615;41.410;2.194;2022-10-29T15:04:25;102066.59;;;26.98;51.94
49397;BME280;35615;41.410;2.194;2022-10-29T15:13:36;102067.97;;;26.23;54.47
49397;BME280;35615;41.410;2.194;2022-10-29T15:16:22;102061.78;;;26.24;54.66
49397;BME280;35615;41.410;2.194;2022-10-29T15:19:13;102064.53;;;26.04;55.30
49397;BME280;35615;41.410;2.194;2022-10-29T15:21:48;102066.22;;;26.22;54.30
49397;BME280;35615;41.410;2.194;2022-10-29T15:24:32;102061.84;;;26.12;55.30
49397;BME280;35615;41.410;2.194;2022-10-29T15:27:11;102072.53;;;25.97;55.37
49397;BME280;35615;41.410;2.194;2022-10-29T15:32:51;102064.59;;;25.89;55.87
49397;BME280;35615;41.410;2.194;2022-10-29T15:35:37;102062.88;;;25.85;56.21
49397;BME280;35615;41.410;2.194;2022-10-29T15:38:57;102070.84;;;25.64;56.79
49397;BME280;35615;41.410;2.194;2022-10-29T15:41:53;102071.75;;;25.58;57.05
49397;BME280;35615;41.410;2.194;2022-10-29T15:45:07;102077.06;;;25.44;57.73
49397;BME280;35615;41.410;2.194;2022-10-29T15:51:24;102076.22;;;25.23;58.21
49397;BME280;35615;41.410;2.194;2022-10-29T15:54:22;102069.13;;;25.44;57.36
49397;BME280;35615;41.410;2.194;2022-10-29T15:57:11;102073.56;;;25.32;57.79
49397;BME280;35615;41.410;2.194;2022-10-29T15:59:56;102071.84;;;25.17;58.10
49397;BME280;35615;41.410;2.194;2022-10-29T16:02:30;102063.88;;;25.23;57.90
49397;BME280;35615;41.410;2.194;2022-10-29T16:05:34;102074.50;;;25.18;58.39
49397;BME280;35615;41.410;2.194;2022-10-29T16:08:38;102075.34;;;25.28;57.76
49397;BME280;35615;41.410;2.194;2022-10-29T16:11:15;102070.03;;;25.01;58.47
49397;BME280;35615;41.410;2.194;2022-10-29T16:14:07;102076.25;;;25.07;58.84
49397;BME280;35615;41.410;2.194;2022-10-29T16:16:54;102073.56;;;24.92;58.94
49397;BME280;35615;41.410;2.194;2022-10-29T16:19:42;102066.53;;;24.79;59.64
49397;BME280;35615;41.410;2.194;2022-10-29T16:22:35;102072.69;;;24.67;60.32
49397;BME280;35615;41.410;2.194;2022-10-29T16:25:34;102072.69;;;24.76;60.03
49397;BME280;35615;41.410;2.194;2022-10-29T16:28:19;102078.00;;;24.73;59.51
49397;BME280;35615;41.410;2.194;2022-10-29T16:31:09;102076.19;;;24.83;59.44
49397;BME280;35615;41.410;2.194;2022-10-29T16:38:06;102069.16;;;24.65;60.37
49397;BME280;35615;41.410;2.194;2022-10-29T16:41:00;102071.78;;;24.59;60.48
49397;BME280;35615;41.410;2.194;2022-10-29T16:43:55;102070.81;;;24.17;61.49
49397;BME280;35615;41.410;2.194;2022-10-29T16:46:48;102069.91;;;24.26;61.31
49397;BME280;35615;41.410;2.194;2022-10-29T16:49:40;102069.03;;;24.27;60.93
49397;BME280;35615;41.410;2.194;2022-10-29T16:52:26;102081.44;;;24.37;60.62
49397;BME280;35615;41.410;2.194;2022-10-29T16:55:23;102083.19;;;24.38;60.50
49397;BME280;35615;41.410;2.194;2022-10-29T16:58:18;102078.78;;;24.31;61.00
49397;BME280;35615;41.410;2.194;2022-10-29T17:01:03;102092.91;;;24.39;60.47
49397;BME280;35615;41.410;2.194;2022-10-29T17:04:05;102089.28;;;24.20;61.18
49397;BME280;35615;41.410;2.194;2022-10-29T17:06:57;102083.19;;;24.30;60.90
49397;BME280;35615;41.410;2.194;2022-10-29T17:13:02;102091.94;;;24.20;61.03
49397;BME280;35615;41.410;2.194;2022-10-29T17:15:55;102087.53;;;24.19;61.10
49397;BME280;35615;41.410;2.194;2022-10-29T17:18:34;102096.28;;;24.11;61.15
49397;BME280;35615;41.410;2.194;2022-10-29T17:21:13;102097.22;;;24.22;60.74
49397;BME280;35615;41.410;2.194;2022-10-29T17:23:46;102096.34;;;24.26;60.53
49397;BME280;35615;41.410;2.194;2022-10-29T17:26:19;102096.34;;;24.17;60.91
49397;BME280;35615;41.410;2.194;2022-10-29T17:28:55;102105.09;;;24.11;61.47
49397;BME280;35615;41.410;2.194;2022-10-29T17:31:24;102110.41;;;24.23;60.67
49397;BME280;35615;41.410;2.194;2022-10-29T17:33:59;102113.03;;;24.14;61.35
49397;BME280;35615;41.410;2.194;2022-10-29T17:36:26;102107.72;;;24.07;61.99
49397;BME280;35615;41.410;2.194;2022-10-29T17:38:53;102117.38;;;24.00;61.33